Time;durP1;ratioP1;P1;durP2;ratioP2;P2;SDS_P1;SDS_P2;PMS_P1;PMS_P2;Temp;Humidity;BMP_temperature;BMP_pressure;BME280_temperature;BME280_humidity;BME280_pressure;Samples;Min_cycle;Max_cycle;Signal;HPM_P1;HPM_P2
2022/09/08 00:00:32;;;;;;;4.47;2.10;;;21.10;96.80;;;;;;5065635;28;20109;-36
2022/09/08 00:03:01;;;;;;;3.85;1.98;;;21.10;96.80;;;;;;5066420;28;20440;-36
2022/09/08 00:05:29;;;;;;;3.60;2.00;;;21.20;96.90;;;;;;5066819;28;20101;-36
2022/09/08 00:07:55;;;;;;;3.05;1.75;;;21.20;96.90;;;;;;5066070;28;20082;-36
2022/09/08 00:10:21;;;;;;;3.72;2.13;;;21.20;97.20;;;;;;5066662;28;20076;-35
2022/09/08 00:12:47;;;;;;;3.33;2.20;;;21.20;96.90;;;;;;5066181;28;20605;-36
2022/09/08 00:15:12;;;;;;;3.63;1.92;;;21.10;96.90;;;;;;5065759;28;20032;-37
2022/09/08 00:17:38;;;;;;;2.20;1.65;;;21.10;96.90;;;;;;5066361;28;20741;-36
2022/09/08 00:20:07;;;;;;;4.10;2.00;;;21.20;97.00;;;;;;5066298;28;20590;-36
2022/09/08 00:22:32;;;;;;;3.05;1.50;;;21.10;97.10;;;;;;5065460;28;20028;-37
2022/09/08 00:24:58;;;;;;;3.08;1.58;;;21.10;97.30;;;;;;5066249;28;20346;-35
2022/09/08 00:27:23;;;;;;;4.70;2.30;;;21.10;97.40;;;;;;5064616;28;20029;-36
2022/09/08 00:29:49;;;;;;;3.42;2.20;;;21.00;97.60;;;;;;5051665;28;20028;-36
2022/09/08 00:32:14;;;;;;;7.03;2.33;;;21.00;98.00;;;;;;5066029;28;20346;-36
2022/09/08 00:34:40;;;;;;;3.60;2.13;;;20.90;98.20;;;;;;5065943;28;20026;-42
2022/09/08 00:37:05;;;;;;;3.72;2.25;;;20.90;98.30;;;;;;5064849;28;20021;-41
2022/09/08 00:39:31;;;;;;;3.00;1.90;;;20.90;98.40;;;;;;5066087;28;20029;-36
2022/09/08 00:41:57;;;;;;;2.92;2.00;;;20.90;98.50;;;;;;5064440;28;20438;-36
2022/09/08 00:44:49;;;;;;;3.25;2.13;;;20.90;98.60;;;;;;5066132;28;20017;-38
2022/09/08 00:47:29;;;;;;;2.33;1.63;;;20.90;98.80;;;;;;5064312;28;20058;-38
2022/09/08 00:50:04;;;;;;;4.45;2.13;;;20.80;98.90;;;;;;5047976;28;20376;-36
2022/09/08 00:52:38;;;;;;;5.07;2.10;;;20.80;99.10;;;;;;5065091;28;20054;-36
2022/09/08 00:55:07;;;;;;;5.15;1.92;;;20.80;99.30;;;;;;5065338;28;20053;-36
2022/09/08 00:57:32;;;;;;;2.53;1.42;;;20.70;99.40;;;;;;5064888;28;20047;-37
2022/09/08 00:59:59;;;;;;;4.38;1.70;;;20.60;99.60;;;;;;5065503;28;20020;-37
2022/09/08 01:02:25;;;;;;;5.43;1.60;;;20.50;99.90;;;;;;5065506;28;20039;-38
2022/09/08 01:04:55;;;;;;;3.78;1.55;;;20.40;99.90;;;;;;5045783;28;20064;-37
2022/09/08 01:13:25;;;;;;;3.97;1.58;;;20.00;99.90;;;;;;5065469;28;20116;-37
2022/09/08 01:15:51;;;;;;;3.63;1.70;;;19.90;99.90;;;;;;5065639;28;20032;-35
2022/09/08 01:18:17;;;;;;;3.13;1.50;;;19.90;99.90;;;;;;5064579;28;20501;-35
2022/09/08 01:21:03;;;;;;;2.90;1.80;;;19.90;99.90;;;;;;5065592;28;20024;-36
2022/09/08 01:23:45;;;;;;;2.10;1.30;;;19.90;99.90;;;;;;5064815;28;20090;-36
2022/09/08 01:26:25;;;;;;;2.28;1.33;;;19.80;99.90;;;;;;5064898;28;20033;-36
2022/09/08 01:28:55;;;;;;;4.55;1.52;;;19.80;99.90;;;;;;5065171;28;20093;-37
2022/09/08 01:31:22;;;;;;;4.68;1.92;;;19.80;99.90;;;;;;5065281;28;20422;-36
2022/09/08 01:33:47;;;;;;;4.15;2.05;;;19.70;99.90;;;;;;5064693;28;20108;-35
2022/09/08 01:36:15;;;;;;;5.28;1.98;;;19.60;99.90;;;;;;5065757;28;20115;-36
2022/09/08 01:38:42;;;;;;;3.97;2.00;;;19.60;99.90;;;;;;5065039;28;20009;-36
2022/09/08 01:41:08;;;;;;;4.80;2.03;;;19.50;99.90;;;;;;5065552;28;20123;-35
2022/09/08 01:43:34;;;;;;;3.83;1.80;;;19.60;99.90;;;;;;5064972;28;20583;-37
2022/09/08 01:45:59;;;;;;;4.82;2.30;;;19.60;99.90;;;;;;5064914;28;20076;-36
2022/09/08 01:48:26;;;;;;;3.33;1.85;;;19.60;99.90;;;;;;5065006;28;20031;-36
2022/09/08 01:50:51;;;;;;;5.60;2.20;;;19.60;99.90;;;;;;5065602;28;20024;-36
2022/09/08 01:53:18;;;;;;;5.47;2.55;;;19.60;99.90;;;;;;5064405;28;20020;-34
2022/09/08 01:55:44;;;;;;;3.67;1.70;;;19.60;99.90;;;;;;5064643;28;20056;-36
2022/09/08 01:58:09;;;;;;;2.90;1.80;;;19.60;99.90;;;;;;5065947;28;20025;-36
2022/09/08 02:00:35;;;;;;;3.92;1.92;;;19.70;99.90;;;;;;5064254;28;20369;-36
2022/09/08 02:03:00;;;;;;;2.90;1.67;;;19.60;99.90;;;;;;5064818;28;20029;-37
2022/09/08 02:05:26;;;;;;;7.47;2.63;;;19.50;99.90;;;;;;5064583;28;20036;-36
2022/09/08 02:07:52;;;;;;;6.32;2.90;;;19.40;99.90;;;;;;5064308;28;21131;-36
2022/09/08 02:10:18;;;;;;;4.13;2.28;;;19.30;99.90;;;;;;5062398;28;20384;-36
2022/09/08 02:12:43;;;;;;;3.45;2.40;;;19.10;99.90;;;;;;5065595;28;20025;-36
2022/09/08 02:15:11;;;;;;;3.20;1.92;;;19.00;99.90;;;;;;5064596;28;20098;-36
2022/09/08 02:17:36;;;;;;;4.00;2.08;;;18.90;99.90;;;;;;5064606;28;20037;-36
2022/09/08 02:20:03;;;;;;;6.57;2.60;;;18.80;99.90;;;;;;5064549;28;20507;-36
2022/09/08 02:22:29;;;;;;;4.63;2.70;;;18.80;99.90;;;;;;5064270;28;20067;-36
2022/09/08 02:24:55;;;;;;;2.42;2.13;;;18.70;99.90;;;;;;5064974;28;20476;-36
2022/09/08 02:27:20;;;;;;;5.50;3.20;;;18.60;99.90;;;;;;5065593;28;20071;-35
2022/09/08 02:29:46;;;;;;;4.55;2.60;;;18.60;99.90;;;;;;5063148;28;20024;-36
2022/09/08 02:32:11;;;;;;;4.30;2.40;;;18.50;99.90;;;;;;5065324;28;20376;-37
2022/09/08 02:34:37;;;;;;;4.25;2.67;;;18.40;99.90;;;;;;5063795;28;20035;-39
2022/09/08 02:37:02;;;;;;;3.20;2.05;;;18.30;99.90;;;;;;5064755;28;20506;-36
2022/09/08 02:39:28;;;;;;;4.32;1.75;;;18.20;99.90;;;;;;5064445;28;20032;-36
2022/09/08 02:41:54;;;;;;;4.65;2.20;;;18.20;99.90;;;;;;5063338;28;20056;-37
2022/09/08 02:44:19;;;;;;;4.20;2.72;;;18.10;99.90;;;;;;5064651;28;20048;-37
2022/09/08 02:46:45;;;;;;;6.88;2.72;;;18.00;99.90;;;;;;5063945;28;20040;-36
2022/09/08 02:49:11;;;;;;;4.65;2.22;;;18.00;99.90;;;;;;5063575;28;20107;-36
2022/09/08 02:51:37;;;;;;;5.75;2.55;;;17.90;99.90;;;;;;5064368;28;20052;-36
2022/09/08 02:54:03;;;;;;;6.70;2.20;;;17.90;99.90;;;;;;5063615;28;20025;-36
2022/09/08 02:56:29;;;;;;;3.50;2.03;;;17.90;99.90;;;;;;5065050;28;20044;-36
2022/09/08 02:58:54;;;;;;;6.47;2.78;;;18.00;99.90;;;;;;5068361;28;20120;-35
2022/09/08 03:01:21;;;;;;;5.93;3.05;;;17.90;99.90;;;;;;5067506;28;20123;-36
2022/09/08 03:03:47;;;;;;;7.55;2.85;;;17.90;99.90;;;;;;5066978;28;20032;-35
2022/09/08 03:06:12;;;;;;;5.45;2.80;;;17.80;99.90;;;;;;5067633;28;20488;-37
2022/09/08 03:08:38;;;;;;;4.88;3.05;;;17.90;99.90;;;;;;5067649;28;20024;-36
2022/09/08 03:11:04;;;;;;;5.28;2.72;;;17.90;99.90;;;;;;5067555;28;20027;-36
2022/09/08 03:13:30;;;;;;;6.70;2.97;;;17.90;99.90;;;;;;5067485;28;20090;-37
2022/09/08 03:15:56;;;;;;;5.25;3.00;;;17.90;99.90;;;;;;5067635;28;20031;-36
2022/09/08 03:18:23;;;;;;;5.45;2.92;;;17.90;99.90;;;;;;5067497;28;20025;-37
2022/09/08 03:21:09;;;;;;;4.88;2.88;;;17.90;99.90;;;;;;5067309;28;20066;-37
2022/09/08 03:23:35;;;;;;;5.07;2.70;;;18.00;99.90;;;;;;5067414;28;20108;-37
2022/09/08 03:26:06;;;;;;;4.28;2.38;;;18.00;99.90;;;;;;5066585;28;20039;-35
2022/09/08 03:28:32;;;;;;;6.38;2.60;;;18.00;99.90;;;;;;5067568;28;20048;-36
2022/09/08 03:30:58;;;;;;;3.20;2.20;;;18.10;99.90;;;;;;5066728;28;20070;-36
2022/09/08 03:33:24;;;;;;;4.25;2.25;;;18.10;99.90;;;;;;5067069;28;20021;-37
2022/09/08 03:35:49;;;;;;;2.85;2.03;;;18.20;99.90;;;;;;5067590;28;20035;-37
2022/09/08 03:38:17;;;;;;;3.88;2.10;;;18.20;99.90;;;;;;5066941;28;20024;-37
2022/09/08 03:40:43;;;;;;;5.38;2.60;;;18.20;99.90;;;;;;5067441;28;20280;-36
2022/09/08 03:43:09;;;;;;;2.80;1.88;;;18.20;99.90;;;;;;5067381;28;20067;-37
2022/09/08 03:45:39;;;;;;;3.92;2.00;;;18.30;99.90;;;;;;5066416;28;20025;-36
2022/09/08 03:48:05;;;;;;;2.97;2.33;;;18.30;99.90;;;;;;5066658;28;20441;-37
2022/09/08 03:50:31;;;;;;;5.07;2.50;;;18.20;99.90;;;;;;5067229;28;20056;-37
2022/09/08 03:52:57;;;;;;;4.45;2.58;;;18.20;99.90;;;;;;5066171;28;20038;-36
2022/09/08 03:55:22;;;;;;;4.43;2.40;;;18.10;99.90;;;;;;5066615;28;20079;-36
2022/09/08 03:57:49;;;;;;;3.72;1.90;;;18.10;99.90;;;;;;5066601;28;20056;-36
2022/09/08 04:00:15;;;;;;;3.65;1.90;;;18.10;99.90;;;;;;5066393;28;20027;-36
2022/09/08 04:02:41;;;;;;;3.58;2.22;;;18.20;99.90;;;;;;5066383;28;20027;-36
2022/09/08 04:05:07;;;;;;;4.53;1.80;;;18.20;99.90;;;;;;5066687;28;20020;-38
2022/09/08 04:07:34;;;;;;;2.58;1.67;;;18.20;99.90;;;;;;5064615;28;20455;-35
2022/09/08 04:10:01;;;;;;;4.95;2.08;;;18.20;99.90;;;;;;5066826;28;20036;-37
2022/09/08 04:12:27;;;;;;;2.50;1.80;;;18.30;99.90;;;;;;5066882;28;20025;-36
2022/09/08 04:14:53;;;;;;;3.08;1.92;;;18.30;99.90;;;;;;5066594;28;20039;-36
2022/09/08 04:17:21;;;;;;;2.80;1.90;;;18.30;99.90;;;;;;5066844;28;20028;-36
2022/09/08 04:19:50;;;;;;;4.43;2.00;;;18.30;99.90;;;;;;5065915;28;20082;-37
2022/09/08 04:22:19;;;;;;;4.22;2.45;;;18.30;99.90;;;;;;5066060;28;20063;-36
2022/09/08 04:24:45;;;;;;;4.15;2.58;;;18.30;99.90;;;;;;5065605;28;20035;-35
2022/09/08 04:27:11;;;;;;;2.70;1.98;;;18.30;99.90;;;;;;5065876;28;20047;-36
2022/09/08 04:29:38;;;;;;;4.28;2.22;;;18.30;99.90;;;;;;5066094;28;20055;-36
2022/09/08 04:32:03;;;;;;;4.63;2.08;;;18.30;99.90;;;;;;5066103;28;20390;-37
2022/09/08 04:34:29;;;;;;;4.55;1.98;;;18.30;99.90;;;;;;5065266;28;20028;-36
2022/09/08 04:36:55;;;;;;;3.15;1.55;;;18.30;99.90;;;;;;5066015;28;20028;-36
2022/09/08 04:39:21;;;;;;;2.50;1.60;;;18.30;99.90;;;;;;5066452;28;20039;-36
2022/09/08 04:41:46;;;;;;;3.15;1.65;;;18.30;99.90;;;;;;5064973;28;20025;-36
2022/09/08 04:44:12;;;;;;;3.35;1.83;;;18.30;99.90;;;;;;5065628;28;20016;-36
2022/09/08 04:46:37;;;;;;;3.38;1.58;;;18.30;99.90;;;;;;5065647;28;20029;-37
2022/09/08 04:49:04;;;;;;;3.22;2.00;;;18.30;99.90;;;;;;5065321;28;20438;-37
2022/09/08 04:51:30;;;;;;;3.97;1.95;;;18.30;99.90;;;;;;5065633;28;20046;-36
2022/09/08 04:53:57;;;;;;;5.90;2.00;;;18.30;99.90;;;;;;5065486;28;20025;-37
2022/09/08 04:56:24;;;;;;;2.80;1.60;;;18.30;99.90;;;;;;5065515;28;20388;-36
2022/09/08 04:58:50;;;;;;;3.78;1.90;;;18.20;99.90;;;;;;5065574;28;20020;-36
2022/09/08 05:01:23;;;;;;;4.05;2.20;;;18.20;99.90;;;;;;5065650;28;20025;-36
2022/09/08 05:03:55;;;;;;;3.78;1.88;;;18.20;99.90;;;;;;5064935;28;20779;-36
2022/09/08 05:06:21;;;;;;;4.03;2.08;;;18.20;99.90;;;;;;5065998;28;20131;-36
2022/09/08 05:08:49;;;;;;;3.88;1.88;;;18.20;99.90;;;;;;5064442;28;20111;-35
2022/09/08 05:11:17;;;;;;;5.60;2.20;;;18.20;99.90;;;;;;5063992;28;20028;-36
2022/09/08 05:13:43;;;;;;;3.55;2.10;;;18.20;99.90;;;;;;5065255;28;20550;-36
2022/09/08 05:16:16;;;;;;;4.78;1.80;;;18.20;99.90;;;;;;5064994;28;20025;-36
2022/09/08 05:18:50;;;;;;;5.40;2.83;;;18.10;99.90;;;;;;5064832;28;20063;-36
2022/09/08 05:21:17;;;;;;;4.07;2.60;;;18.10;99.90;;;;;;5065088;28;20024;-38
2022/09/08 05:23:43;;;;;;;3.60;2.38;;;18.00;99.90;;;;;;5064939;28;20028;-37
2022/09/08 05:26:12;;;;;;;3.60;3.20;;;18.00;99.90;;;;;;5065809;28;20445;-36
2022/09/08 05:28:40;;;;;;;5.03;3.25;;;18.00;99.90;;;;;;5065194;28;20418;-35
2022/09/08 05:31:07;;;;;;;5.45;2.90;;;18.00;99.90;;;;;;5064266;28;20040;-35
2022/09/08 05:33:33;;;;;;;6.47;3.15;;;17.90;99.90;;;;;;5065390;28;20426;-36
2022/09/08 05:35:59;;;;;;;3.88;2.60;;;18.00;99.90;;;;;;5063321;28;20990;-36
2022/09/08 05:38:25;;;;;;;4.05;2.45;;;18.00;99.90;;;;;;5062659;28;20540;-36
2022/09/08 05:40:50;;;;;;;6.25;3.28;;;18.00;99.90;;;;;;5066518;28;20468;-37
2022/09/08 05:43:18;;;;;;;3.28;2.55;;;17.90;99.90;;;;;;5065025;28;20432;-37
2022/09/08 05:45:48;;;;;;;5.28;3.63;;;18.00;99.90;;;;;;5062732;28;20111;-36
2022/09/08 05:48:14;;;;;;;4.35;3.13;;;17.90;99.90;;;;;;5064071;28;20380;-37
2022/09/08 05:50:44;;;;;;;6.22;3.35;;;17.90;99.90;;;;;;5062498;28;20020;-37
2022/09/08 05:53:10;;;;;;;5.53;3.30;;;18.00;99.90;;;;;;5063622;28;20025;-36
2022/09/08 05:55:36;;;;;;;4.97;3.58;;;18.00;99.90;;;;;;5062736;28;20495;-36
2022/09/08 05:58:02;;;;;;;3.63;3.10;;;18.00;99.90;;;;;;5063359;28;20070;-36
2022/09/08 06:00:28;;;;;;;5.68;3.63;;;18.00;99.90;;;;;;5062749;28;20020;-36
2022/09/08 06:02:54;;;;;;;7.50;3.72;;;17.90;99.90;;;;;;5063621;28;20020;-38
2022/09/08 06:05:20;;;;;;;3.88;2.80;;;18.00;99.90;;;;;;5063717;28;20036;-37
2022/09/08 06:07:47;;;;;;;4.35;3.17;;;18.00;99.90;;;;;;5062461;28;20043;-37
2022/09/08 06:10:13;;;;;;;5.80;3.30;;;18.00;99.90;;;;;;5063484;28;20029;-37
2022/09/08 06:12:39;;;;;;;3.83;3.10;;;18.00;99.90;;;;;;5062239;28;20028;-37
2022/09/08 06:15:05;;;;;;;3.90;2.63;;;18.00;99.90;;;;;;5063147;28;20036;-36
2022/09/08 06:17:31;;;;;;;6.88;3.50;;;18.00;99.90;;;;;;5063734;28;20458;-36
2022/09/08 06:19:57;;;;;;;5.32;3.80;;;18.00;99.90;;;;;;5062540;28;20031;-36
2022/09/08 06:22:23;;;;;;;6.00;3.92;;;18.00;99.90;;;;;;5063657;28;20380;-37
2022/09/08 06:24:48;;;;;;;4.32;3.10;;;17.90;99.90;;;;;;5063232;28;20388;-37
2022/09/08 06:28:02;;;;;;;4.55;3.15;;;18.00;99.90;;;;;;5063065;28;20105;-37
2022/09/08 06:30:27;;;;;;;5.00;2.90;;;17.90;99.90;;;;;;5022520;28;20052;-37
2022/09/08 06:32:59;;;;;;;3.65;2.88;;;18.00;99.90;;;;;;5058500;28;20028;-38
2022/09/08 06:35:35;;;;;;;3.63;2.53;;;18.00;99.90;;;;;;5066392;28;20036;-37
2022/09/08 06:38:31;;;;;;;4.53;2.78;;;18.00;99.90;;;;;;5067627;28;20051;-37
2022/09/08 06:41:12;;;;;;;5.05;3.45;;;18.00;99.90;;;;;;5062082;28;20247;-37
2022/09/08 06:43:45;;;;;;;5.60;2.88;;;17.90;99.90;;;;;;5068051;28;20024;-37
2022/09/08 06:46:17;;;;;;;;;;;17.90;99.90;;;;;;5068477;28;20139;-37
2022/09/08 06:48:43;;;;;;;4.15;2.90;;;17.90;99.90;;;;;;5066527;28;20318;-37
2022/09/08 06:51:27;;;;;;;6.40;2.83;;;17.90;99.90;;;;;;5067805;28;20036;-37
2022/09/08 06:54:01;;;;;;;3.70;2.85;;;17.90;99.90;;;;;;5067630;28;20043;-36
2022/09/08 06:56:57;;;;;;;4.70;2.70;;;18.00;99.90;;;;;;5066974;28;20040;-38
2022/09/08 06:59:36;;;;;;;3.97;2.80;;;17.90;99.90;;;;;;5067695;28;20017;-37
2022/09/08 07:02:30;;;;;;;5.18;3.05;;;18.00;99.90;;;;;;5065975;28;20036;-37
2022/09/08 07:05:05;;;;;;;4.55;2.38;;;18.00;99.90;;;;;;5067642;28;20077;-37
2022/09/08 07:07:45;;;;;;;2.97;2.65;;;18.00;99.90;;;;;;5067766;28;20056;-37
2022/09/08 07:10:41;;;;;;;7.20;3.33;;;18.00;99.90;;;;;;5067327;28;20567;-39
2022/09/08 07:13:26;;;;;;;3.78;3.38;;;17.90;99.90;;;;;;5068190;28;20064;-36
2022/09/08 07:16:05;;;;;;;3.97;3.25;;;17.90;99.90;;;;;;5066929;28;20455;-37
2022/09/08 07:18:49;;;;;;;4.38;2.90;;;17.90;99.90;;;;;;5067768;28;20037;-35
2022/09/08 07:21:38;;;;;;;3.88;2.90;;;17.90;99.90;;;;;;5057373;28;20032;-38
2022/09/08 07:24:04;;;;;;;3.72;3.25;;;18.00;99.90;;;;;;5065939;28;20024;-37
2022/09/08 07:26:41;;;;;;;3.28;2.90;;;17.90;99.90;;;;;;5067266;28;20039;-37
2022/09/08 07:29:17;;;;;;;4.15;3.22;;;17.90;99.90;;;;;;5066917;28;20447;-37
2022/09/08 07:31:49;;;;;;;6.43;3.67;;;17.90;99.90;;;;;;5065986;28;20035;-37
2022/09/08 07:34:19;;;;;;;5.22;3.85;;;17.90;99.90;;;;;;5067132;28;20050;-36
2022/09/08 07:36:57;;;;;;;3.95;3.20;;;17.90;99.90;;;;;;5065719;28;20081;-37
2022/09/08 07:39:30;;;;;;;4.40;3.85;;;18.00;99.90;;;;;;5067175;28;20067;-38
2022/09/08 07:41:59;;;;;;;4.25;3.85;;;18.00;99.90;;;;;;5055879;28;20029;-37
2022/09/08 07:44:25;;;;;;;3.50;3.20;;;18.00;99.90;;;;;;5065989;28;20424;-36
2022/09/08 07:47:33;;;;;;;4.20;3.80;;;18.00;99.90;;;;;;5066218;28;20036;-37
2022/09/08 07:50:16;;;;;;;3.17;2.88;;;18.10;99.90;;;;;;5066887;28;20032;-37
2022/09/08 07:52:57;;;;;;;3.25;2.70;;;18.10;99.90;;;;;;5065985;28;20024;-36
2022/09/08 07:55:29;;;;;;;3.58;3.28;;;18.10;99.90;;;;;;5067053;28;20060;-36
2022/09/08 07:58:02;;;;;;;5.57;3.67;;;18.10;99.90;;;;;;5066810;28;20349;-37
2022/09/08 08:01:06;;;;;;;3.25;2.95;;;18.20;99.90;;;;;;5066333;28;20495;-37
2022/09/08 08:03:55;;;;;;;3.40;3.10;;;18.20;99.90;;;;;;5067016;28;20035;-37
2022/09/08 08:06:43;;;;;;;3.83;3.40;;;18.20;99.90;;;;;;5066886;28;20605;-36
2022/09/08 08:09:24;;;;;;;4.20;3.80;;;18.30;99.90;;;;;;5055615;28;20368;-37
2022/09/08 08:12:12;;;;;;;3.95;3.17;;;18.30;99.90;;;;;;5065778;28;20024;-39
2022/09/08 08:15:15;;;;;;;3.83;3.53;;;18.30;99.90;;;;;;5066767;28;20082;-38
2022/09/08 08:17:51;;;;;;;3.97;3.50;;;18.30;99.90;;;;;;5063201;28;20043;-38
2022/09/08 08:20:31;;;;;;;4.07;3.55;;;18.40;99.90;;;;;;5065382;28;20029;-38
2022/09/08 08:23:35;;;;;;;4.75;4.10;;;18.40;99.90;;;;;;5063865;28;20545;-37
2022/09/08 08:26:51;;;;;;;3.88;3.53;;;18.40;99.90;;;;;;5065046;28;20036;-37
2022/09/08 08:29:33;;;;;;;3.97;3.25;;;18.50;99.90;;;;;;5042314;28;20037;-39
2022/09/08 08:32:36;;;;;;;3.47;2.95;;;18.50;99.90;;;;;;5065627;28;20517;-36
2022/09/08 08:35:12;;;;;;;3.28;2.97;;;18.60;99.90;;;;;;5045002;28;20036;-37
2022/09/08 08:37:40;;;;;;;4.57;3.20;;;18.70;99.90;;;;;;5061848;28;20048;-38
2022/09/08 08:40:35;;;;;;;2.97;2.67;;;18.80;99.90;;;;;;5045740;28;20102;-36
2022/09/08 08:43:24;;;;;;;3.28;2.95;;;19.00;99.90;;;;;;5061173;28;20032;-38
2022/09/08 08:46:20;;;;;;;4.97;3.22;;;19.10;99.90;;;;;;5065442;28;20487;-37
2022/09/08 08:48:57;;;;;;;2.67;2.47;;;19.10;99.90;;;;;;5061402;28;20119;-39
2022/09/08 08:51:47;;;;;;;4.22;3.05;;;19.20;99.90;;;;;;5065656;28;20043;-37
2022/09/08 08:54:21;;;;;;;3.20;2.60;;;19.20;99.90;;;;;;5064946;28;20554;-37
2022/09/08 08:57:03;;;;;;;4.05;2.90;;;19.30;99.90;;;;;;5065221;28;20115;-38
2022/09/08 08:59:47;;;;;;;3.43;2.50;;;19.40;99.90;;;;;;5055215;28;20040;-37
2022/09/08 09:02:34;;;;;;;3.85;2.40;;;19.50;99.90;;;;;;5064172;28;20306;-38
2022/09/08 09:05:24;;;;;;;3.13;2.00;;;19.60;99.90;;;;;;5065335;28;20021;-38
2022/09/08 09:08:13;;;;;;;2.97;2.20;;;19.70;99.90;;;;;;5065480;28;20144;-38
2022/09/08 09:11:13;;;;;;;3.38;2.10;;;19.80;99.90;;;;;;5065117;28;20031;-37
2022/09/08 09:14:12;;;;;;;2.58;2.33;;;19.90;99.90;;;;;;5064747;28;20458;-38
2022/09/08 09:17:03;;;;;;;2.65;2.40;;;20.10;99.90;;;;;;5044007;28;20082;-36
2022/09/08 09:19:57;;;;;;;5.18;3.17;;;20.10;99.90;;;;;;5064460;28;20468;-36
2022/09/08 09:22:48;;;;;;;3.25;2.13;;;20.10;99.90;;;;;;5065057;28;20055;-36
2022/09/08 09:25:35;;;;;;;3.45;2.42;;;20.20;99.90;;;;;;5064879;28;20054;-38
2022/09/08 09:28:24;;;;;;;4.35;3.22;;;20.10;99.90;;;;;;5064641;28;20456;-36
2022/09/08 09:31:27;;;;;;;4.10;3.00;;;20.10;99.90;;;;;;5055790;28;20035;-36
2022/09/08 09:34:00;;;;;;;4.80;3.40;;;20.10;99.90;;;;;;5064407;28;20036;-36
2022/09/08 09:36:43;;;;;;;4.10;2.88;;;20.10;99.90;;;;;;5064154;28;20029;-36
2022/09/08 09:39:33;;;;;;;3.95;3.17;;;20.00;99.90;;;;;;5064413;28;20020;-37
2022/09/08 09:42:12;;;;;;;4.43;3.33;;;20.00;99.90;;;;;;5064632;28;20035;-37
2022/09/08 09:44:44;;;;;;;4.53;3.15;;;20.10;99.90;;;;;;5063337;28;20474;-37
2022/09/08 09:47:28;;;;;;;5.20;3.65;;;20.20;99.90;;;;;;5064717;28;20036;-37
2022/09/08 09:50:12;;;;;;;3.65;2.90;;;20.30;99.90;;;;;;5063756;28;20124;-37
2022/09/08 09:53:06;;;;;;;3.92;2.80;;;20.40;99.90;;;;;;5043468;28;20039;-38
2022/09/08 09:56:18;;;;;;;3.10;2.50;;;20.50;99.90;;;;;;5062920;28;20135;-37
2022/09/08 09:59:27;;;;;;;4.28;2.85;;;20.50;99.90;;;;;;5064014;28;20040;-37
2022/09/08 10:02:08;;;;;;;4.75;2.63;;;20.60;99.90;;;;;;5032740;28;20416;-36
2022/09/08 10:05:12;;;;;;;2.85;2.20;;;20.50;99.90;;;;;;5063386;28;20025;-38
2022/09/08 10:08:08;;;;;;;3.25;2.40;;;20.40;99.90;;;;;;5064318;28;20028;-37
2022/09/08 10:10:39;;;;;;;2.45;1.90;;;20.30;99.90;;;;;;5064294;28;20129;-36
2022/09/08 10:13:20;;;;;;;2.87;2.43;;;20.30;99.90;;;;;;5064292;28;20024;-38
2022/09/08 10:16:15;;;;;;;3.22;2.30;;;20.30;99.90;;;;;;5063623;28;20025;-36
2022/09/08 10:19:02;;;;;;;3.75;2.60;;;20.30;99.90;;;;;;5043738;28;20033;-37
2022/09/08 10:21:41;;;;;;;2.95;2.58;;;20.30;99.90;;;;;;5063606;28;20024;-37
2022/09/08 10:24:22;;;;;;;3.90;2.53;;;20.30;99.90;;;;;;5064739;28;20450;-36
2022/09/08 10:27:09;;;;;;;2.58;2.35;;;20.30;99.90;;;;;;5061963;28;20032;-37
2022/09/08 10:30:22;;;;;;;3.55;2.40;;;20.40;99.90;;;;;;5064227;28;20050;-35
2022/09/08 10:32:48;;;;;;;;;;;20.50;99.90;;;;;;5026503;28;20040;-36
2022/09/08 10:35:19;;;;;;;4.85;2.60;;;20.70;99.90;;;;;;5049574;28;19909;-37
2022/09/08 10:38:09;;;;;;;5.57;2.40;;;20.70;99.90;;;;;;5052713;28;20461;-37
2022/09/08 10:40:44;;;;;;;3.53;2.90;;;20.80;99.90;;;;;;5063097;28;20289;-37
2022/09/08 10:43:34;;;;;;;3.58;2.92;;;20.80;99.90;;;;;;5064515;28;20028;-36
2022/09/08 10:46:37;;;;;;;3.97;2.60;;;20.90;99.90;;;;;;5064352;28;20074;-37
2022/09/08 10:49:18;;;;;;;3.83;2.40;;;21.00;99.90;;;;;;5063768;28;20608;-38
2022/09/08 10:52:11;;;;;;;2.88;1.92;;;21.00;99.90;;;;;;5063533;28;20032;-37
2022/09/08 10:55:09;;;;;;;2.50;1.70;;;20.90;99.90;;;;;;5043214;28;20676;-37
2022/09/08 10:58:01;;;;;;;4.55;2.00;;;20.90;99.90;;;;;;5062959;28;20039;-37
2022/09/08 11:00:38;;;;;;;4.57;1.80;;;20.90;99.90;;;;;;5064404;28;20024;-37
2022/09/08 11:03:27;;;;;;;3.80;1.98;;;21.00;99.90;;;;;;5062788;28;20078;-37
2022/09/08 11:06:05;;;;;;;3.40;1.85;;;21.00;99.90;;;;;;5063840;28;20021;-36
2022/09/08 11:09:02;;;;;;;2.35;1.65;;;21.10;99.90;;;;;;5062991;28;20039;-37
2022/09/08 11:11:34;;;;;;;3.17;1.60;;;21.10;99.90;;;;;;5063976;28;20024;-37
2022/09/08 11:14:03;;;;;;;3.10;1.77;;;21.20;99.90;;;;;;5053955;28;20056;-37
2022/09/08 11:16:54;;;;;;;4.65;1.67;;;21.30;99.90;;;;;;5063401;28;20121;-35
2022/09/08 11:19:33;;;;;;;2.42;1.52;;;21.50;99.90;;;;;;5058892;28;20028;-36
2022/09/08 11:22:20;;;;;;;2.42;1.40;;;21.60;99.90;;;;;;5066206;28;20360;-37
2022/09/08 11:24:54;;;;;;;4.85;2.08;;;21.70;99.90;;;;;;5066505;28;20028;-36
2022/09/08 11:27:29;;;;;;;3.00;2.03;;;21.70;99.90;;;;;;5066765;28;20032;-37
2022/09/08 11:30:19;;;;;;;3.67;1.50;;;21.70;99.90;;;;;;5066449;28;20384;-37
2022/09/08 11:33:00;;;;;;;3.92;1.60;;;21.70;99.90;;;;;;5066816;28;20433;-36
2022/09/08 11:35:37;;;;;;;4.15;1.23;;;21.90;99.90;;;;;;5066693;28;20032;-37
2022/09/08 11:38:23;;;;;;;2.53;1.10;;;22.00;99.90;;;;;;5065717;28;20020;-36
2022/09/08 11:41:14;;;;;;;4.38;1.38;;;22.20;99.30;;;;;;5066786;28;20033;-37
2022/09/08 11:43:54;;;;;;;3.30;1.30;;;22.20;99.70;;;;;;5065679;28;20035;-37
2022/09/08 11:46:31;;;;;;;3.40;1.30;;;22.30;99.70;;;;;;5046877;28;20064;-36
2022/09/08 11:49:06;;;;;;;3.30;1.63;;;22.40;99.50;;;;;;5062754;28;20052;-36
2022/09/08 11:51:55;;;;;;;3.72;1.83;;;22.50;98.60;;;;;;5045815;28;20037;-36
2022/09/08 11:54:48;;;;;;;4.22;1.50;;;22.60;98.70;;;;;;5063990;28;20377;-38
2022/09/08 11:57:59;;;;;;;3.25;1.20;;;22.60;98.60;;;;;;5066020;28;20399;-37
2022/09/08 12:00:33;;;;;;;3.17;1.27;;;22.60;98.90;;;;;;5066327;28;20078;-37
2022/09/08 12:03:32;;;;;;;3.63;1.33;;;22.60;98.70;;;;;;5066715;28;20388;-36
2022/09/08 12:06:13;;;;;;;4.07;1.70;;;22.50;98.90;;;;;;5057275;28;20119;-37
2022/09/08 12:08:56;;;;;;;8.23;1.58;;;22.40;98.80;;;;;;5066795;28;20030;-36
2022/09/08 12:12:11;;;;;;;3.28;1.40;;;22.40;98.90;;;;;;5066434;28;20029;-35
2022/09/08 12:15:02;;;;;;;2.83;1.30;;;22.30;98.70;;;;;;5023254;28;20113;-36
2022/09/08 12:17:34;;;;;;;3.65;1.50;;;22.20;98.80;;;;;;5044218;28;20692;-36
2022/09/08 12:20:24;;;;;;;3.20;1.20;;;22.20;98.80;;;;;;5061153;28;20499;-36
2022/09/08 12:23:09;;;;;;;3.78;1.63;;;22.20;98.70;;;;;;5046346;28;20041;-37
2022/09/08 12:25:57;;;;;;;5.47;1.30;;;22.20;98.40;;;;;;5064074;28;20083;-36
2022/09/08 12:28:44;;;;;;;1.88;1.02;;;22.10;97.90;;;;;;5065752;28;20036;-37
2022/09/08 12:31:30;;;;;;;3.70;1.30;;;21.90;98.10;;;;;;5066524;28;20304;-37
2022/09/08 12:33:59;;;;;;;2.58;1.15;;;21.90;98.00;;;;;;5065457;28;20025;-37
2022/09/08 12:36:37;;;;;;;3.45;1.13;;;21.90;98.00;;;;;;5065286;28;20503;-36
2022/09/08 12:39:42;;;;;;;3.58;1.10;;;22.00;97.30;;;;;;5065994;28;20337;-36
2022/09/08 12:42:42;;;;;;;2.28;0.88;;;22.20;97.10;;;;;;5057467;28;20125;-36
2022/09/08 12:45:35;;;;;;;2.30;0.85;;;22.30;96.90;;;;;;5065801;28;20118;-37
2022/09/08 12:48:30;;;;;;;2.28;1.00;;;22.30;96.60;;;;;;5065373;28;20742;-38
2022/09/08 12:51:00;;;;;;;1.80;0.95;;;22.20;96.90;;;;;;5065493;28;20031;-46
2022/09/08 12:53:57;;;;;;;2.47;1.10;;;22.10;96.90;;;;;;5064568;28;20600;-37
2022/09/08 12:56:40;;;;;;;1.95;0.90;;;22.10;97.10;;;;;;5065528;28;20524;-38
2022/09/08 12:59:15;;;;;;;3.00;1.27;;;22.10;97.20;;;;;;5065368;28;20029;-36
2022/09/08 13:01:45;;;;;;;3.80;0.95;;;22.20;97.10;;;;;;5064320;28;20562;-36
2022/09/08 13:04:41;;;;;;;2.45;1.00;;;22.20;97.00;;;;;;5066459;28;20048;-37
2022/09/08 13:07:20;;;;;;;1.17;0.63;;;22.40;97.00;;;;;;5064069;28;20097;-37
2022/09/08 13:10:04;;;;;;;1.75;0.90;;;22.40;96.80;;;;;;5064086;28;20025;-36
2022/09/08 13:13:07;;;;;;;3.22;0.90;;;22.60;96.20;;;;;;5065054;28;20024;-37
2022/09/08 13:15:35;;;;;;;1.80;0.70;;;22.70;95.70;;;;;;5064556;28;20040;-36
2022/09/08 13:18:33;;;;;;;2.60;0.88;;;22.80;95.70;;;;;;5064570;28;20020;-35
2022/09/08 13:21:28;;;;;;;2.92;0.80;;;22.70;95.60;;;;;;5056621;28;20078;-36
2022/09/08 13:24:09;;;;;;;2.55;1.02;;;22.70;95.60;;;;;;5065253;28;20081;-35
2022/09/08 13:26:41;;;;;;;4.93;1.30;;;22.50;95.50;;;;;;5064834;28;20127;-37
2022/09/08 13:29:28;;;;;;;4.13;1.00;;;22.50;95.70;;;;;;5063813;28;20543;-36
2022/09/08 13:32:21;;;;;;;3.90;1.08;;;22.60;95.70;;;;;;5064450;28;20028;-38
2022/09/08 13:35:15;;;;;;;1.77;0.98;;;22.60;95.70;;;;;;5064732;28;20032;-36
2022/09/08 13:38:02;;;;;;;2.97;0.98;;;22.50;95.60;;;;;;5064075;28;20033;-36
2022/09/08 13:40:47;;;;;;;2.42;0.93;;;22.50;95.60;;;;;;5063691;28;20450;-36